sensor_id;sensor_type;location;lat;lon;timestamp;P1;durP1;ratioP1;P2;durP2;ratioP2
14770;SDS011;7477;45.222;5.688;2022-11-20T00:00:31;4.25;;;2.80;;
14770;SDS011;7477;45.222;5.688;2022-11-20T00:03:50;5.53;;;2.83;;
14770;SDS011;7477;45.222;5.688;2022-11-20T00:07:10;4.03;;;2.53;;
14770;SDS011;7477;45.222;5.688;2022-11-20T00:10:30;4.70;;;2.40;;
14770;SDS011;7477;45.222;5.688;2022-11-20T00:13:50;3.78;;;2.92;;
14770;SDS011;7477;45.222;5.688;2022-11-20T00:17:12;3.33;;;2.53;;
14770;SDS011;7477;45.222;5.688;2022-11-20T00:20:31;4.75;;;2.70;;
14770;SDS011;7477;45.222;5.688;2022-11-20T00:23:50;3.78;;;2.40;;
14770;SDS011;7477;45.222;5.688;2022-11-20T00:27:11;9.30;;;2.80;;
14770;SDS011;7477;45.222;5.688;2022-11-20T00:30:31;3.33;;;2.70;;
14770;SDS011;7477;45.222;5.688;2022-11-20T00:33:50;6.18;;;2.55;;
14770;SDS011;7477;45.222;5.688;2022-11-20T00:37:10;5.38;;;2.70;;
14770;SDS011;7477;45.222;5.688;2022-11-20T00:40:30;3.03;;;2.60;;
14770;SDS011;7477;45.222;5.688;2022-11-20T00:43:50;4.57;;;2.67;;
14770;SDS011;7477;45.222;5.688;2022-11-20T00:47:11;4.38;;;2.92;;
14770;SDS011;7477;45.222;5.688;2022-11-20T00:50:30;2.40;;;1.92;;
14770;SDS011;7477;45.222;5.688;2022-11-20T00:53:49;2.95;;;2.25;;
14770;SDS011;7477;45.222;5.688;2022-11-20T00:57:08;3.33;;;2.35;;
14770;SDS011;7477;45.222;5.688;2022-11-20T01:00:27;2.90;;;2.33;;
14770;SDS011;7477;45.222;5.688;2022-11-20T01:03:47;4.78;;;2.50;;
14770;SDS011;7477;45.222;5.688;2022-11-20T01:07:08;4.28;;;2.65;;
14770;SDS011;7477;45.222;5.688;2022-11-20T01:10:27;4.60;;;3.03;;
14770;SDS011;7477;45.222;5.688;2022-11-20T01:13:47;3.65;;;2.72;;
14770;SDS011;7477;45.222;5.688;2022-11-20T01:17:07;3.13;;;2.55;;
14770;SDS011;7477;45.222;5.688;2022-11-20T01:20:26;4.80;;;2.58;;
14770;SDS011;7477;45.222;5.688;2022-11-20T01:23:46;2.97;;;2.50;;
14770;SDS011;7477;45.222;5.688;2022-11-20T01:27:06;6.70;;;2.42;;
14770;SDS011;7477;45.222;5.688;2022-11-20T01:30:25;3.13;;;2.10;;
14770;SDS011;7477;45.222;5.688;2022-11-20T01:33:45;4.07;;;2.40;;
14770;SDS011;7477;45.222;5.688;2022-11-20T01:37:06;3.08;;;2.13;;
14770;SDS011;7477;45.222;5.688;2022-11-20T01:40:25;4.13;;;2.08;;
14770;SDS011;7477;45.222;5.688;2022-11-20T01:43:44;3.25;;;1.75;;
14770;SDS011;7477;45.222;5.688;2022-11-20T01:47:04;2.58;;;2.22;;
14770;SDS011;7477;45.222;5.688;2022-11-20T01:50:26;4.68;;;2.25;;
14770;SDS011;7477;45.222;5.688;2022-11-20T01:53:53;3.90;;;2.20;;
14770;SDS011;7477;45.222;5.688;2022-11-20T01:57:13;4.10;;;2.05;;
14770;SDS011;7477;45.222;5.688;2022-11-20T02:00:35;3.10;;;2.13;;
14770;SDS011;7477;45.222;5.688;2022-11-20T02:03:54;3.22;;;1.95;;
14770;SDS011;7477;45.222;5.688;2022-11-20T02:07:14;3.33;;;2.25;;
14770;SDS011;7477;45.222;5.688;2022-11-20T02:10:35;4.40;;;2.28;;
14770;SDS011;7477;45.222;5.688;2022-11-20T02:13:54;4.25;;;2.33;;
14770;SDS011;7477;45.222;5.688;2022-11-20T02:17:14;2.35;;;2.15;;
14770;SDS011;7477;45.222;5.688;2022-11-20T02:20:34;3.42;;;2.22;;
14770;SDS011;7477;45.222;5.688;2022-11-20T02:27:35;2.97;;;2.63;;
14770;SDS011;7477;45.222;5.688;2022-11-20T02:30:55;3.08;;;2.65;;
14770;SDS011;7477;45.222;5.688;2022-11-20T02:34:15;6.38;;;3.67;;
14770;SDS011;7477;45.222;5.688;2022-11-20T02:37:34;6.85;;;3.10;;
14770;SDS011;7477;45.222;5.688;2022-11-20T02:40:57;4.38;;;3.05;;
14770;SDS011;7477;45.222;5.688;2022-11-20T02:44:16;7.97;;;3.92;;
14770;SDS011;7477;45.222;5.688;2022-11-20T02:47:36;5.50;;;3.90;;
14770;SDS011;7477;45.222;5.688;2022-11-20T02:50:55;6.63;;;3.85;;
14770;SDS011;7477;45.222;5.688;2022-11-20T02:54:14;4.88;;;4.35;;
14770;SDS011;7477;45.222;5.688;2022-11-20T02:57:34;4.97;;;3.90;;
14770;SDS011;7477;45.222;5.688;2022-11-20T03:00:53;6.05;;;4.15;;
14770;SDS011;7477;45.222;5.688;2022-11-20T03:04:12;4.55;;;4.00;;
14770;SDS011;7477;45.222;5.688;2022-11-20T03:07:31;4.32;;;3.72;;
14770;SDS011;7477;45.222;5.688;2022-11-20T03:10:51;7.00;;;4.72;;
14770;SDS011;7477;45.222;5.688;2022-11-20T03:14:10;6.35;;;4.43;;
14770;SDS011;7477;45.222;5.688;2022-11-20T03:17:30;6.70;;;3.75;;
14770;SDS011;7477;45.222;5.688;2022-11-20T03:20:49;5.07;;;3.85;;
14770;SDS011;7477;45.222;5.688;2022-11-20T03:24:08;6.32;;;3.47;;
14770;SDS011;7477;45.222;5.688;2022-11-20T03:27:27;3.95;;;3.40;;
14770;SDS011;7477;45.222;5.688;2022-11-20T03:30:51;5.30;;;3.97;;
14770;SDS011;7477;45.222;5.688;2022-11-20T03:34:11;5.47;;;3.97;;
14770;SDS011;7477;45.222;5.688;2022-11-20T03:37:31;4.60;;;3.13;;
14770;SDS011;7477;45.222;5.688;2022-11-20T03:40:50;4.88;;;3.05;;
14770;SDS011;7477;45.222;5.688;2022-11-20T03:44:10;5.50;;;3.03;;
14770;SDS011;7477;45.222;5.688;2022-11-20T03:47:29;5.53;;;3.35;;
14770;SDS011;7477;45.222;5.688;2022-11-20T03:50:49;5.40;;;3.28;;
14770;SDS011;7477;45.222;5.688;2022-11-20T03:54:08;4.00;;;2.70;;
14770;SDS011;7477;45.222;5.688;2022-11-20T03:57:28;3.40;;;2.90;;
14770;SDS011;7477;45.222;5.688;2022-11-20T04:00:47;2.97;;;2.67;;
14770;SDS011;7477;45.222;5.688;2022-11-20T04:04:06;5.07;;;2.90;;
14770;SDS011;7477;45.222;5.688;2022-11-20T04:07:26;5.10;;;3.20;;
14770;SDS011;7477;45.222;5.688;2022-11-20T04:10:45;2.72;;;2.53;;
14770;SDS011;7477;45.222;5.688;2022-11-20T04:14:05;5.72;;;3.13;;
14770;SDS011;7477;45.222;5.688;2022-11-20T04:17:30;6.20;;;4.50;;
14770;SDS011;7477;45.222;5.688;2022-11-20T04:20:49;3.33;;;2.72;;
14770;SDS011;7477;45.222;5.688;2022-11-20T04:24:08;5.45;;;2.65;;
14770;SDS011;7477;45.222;5.688;2022-11-20T04:27:30;3.85;;;2.53;;
14770;SDS011;7477;45.222;5.688;2022-11-20T04:30:49;3.10;;;2.80;;
14770;SDS011;7477;45.222;5.688;2022-11-20T04:34:10;2.80;;;2.50;;
14770;SDS011;7477;45.222;5.688;2022-11-20T04:37:30;3.55;;;2.88;;
14770;SDS011;7477;45.222;5.688;2022-11-20T04:40:49;6.63;;;3.22;;
14770;SDS011;7477;45.222;5.688;2022-11-20T04:44:08;3.08;;;2.72;;
14770;SDS011;7477;45.222;5.688;2022-11-20T04:47:28;3.08;;;2.45;;
14770;SDS011;7477;45.222;5.688;2022-11-20T04:50:47;5.03;;;2.70;;
14770;SDS011;7477;45.222;5.688;2022-11-20T04:54:06;3.65;;;2.50;;
14770;SDS011;7477;45.222;5.688;2022-11-20T04:57:26;7.53;;;2.67;;
14770;SDS011;7477;45.222;5.688;2022-11-20T05:00:46;3.30;;;2.25;;
14770;SDS011;7477;45.222;5.688;2022-11-20T05:04:05;3.83;;;2.20;;
14770;SDS011;7477;45.222;5.688;2022-11-20T05:07:24;3.40;;;2.47;;
14770;SDS011;7477;45.222;5.688;2022-11-20T05:10:43;3.47;;;2.85;;
14770;SDS011;7477;45.222;5.688;2022-11-20T05:14:03;4.63;;;2.55;;
14770;SDS011;7477;45.222;5.688;2022-11-20T05:17:22;2.67;;;2.47;;
14770;SDS011;7477;45.222;5.688;2022-11-20T05:20:41;3.97;;;2.80;;
14770;SDS011;7477;45.222;5.688;2022-11-20T05:24:01;2.42;;;2.22;;
14770;SDS011;7477;45.222;5.688;2022-11-20T05:27:20;5.05;;;2.88;;
14770;SDS011;7477;45.222;5.688;2022-11-20T05:30:39;3.22;;;2.47;;
14770;SDS011;7477;45.222;5.688;2022-11-20T05:33:58;3.95;;;2.30;;
14770;SDS011;7477;45.222;5.688;2022-11-20T05:37:17;5.88;;;2.85;;
14770;SDS011;7477;45.222;5.688;2022-11-20T05:40:36;2.63;;;2.28;;
14770;SDS011;7477;45.222;5.688;2022-11-20T05:43:56;2.85;;;2.58;;
14770;SDS011;7477;45.222;5.688;2022-11-20T05:47:16;3.83;;;2.90;;
14770;SDS011;7477;45.222;5.688;2022-11-20T05:50:35;3.42;;;2.63;;
14770;SDS011;7477;45.222;5.688;2022-11-20T05:53:57;3.20;;;2.30;;
14770;SDS011;7477;45.222;5.688;2022-11-20T05:57:17;2.95;;;2.50;;
14770;SDS011;7477;45.222;5.688;2022-11-20T06:00:36;4.90;;;2.50;;
14770;SDS011;7477;45.222;5.688;2022-11-20T06:03:56;2.90;;;2.40;;
14770;SDS011;7477;45.222;5.688;2022-11-20T06:07:15;3.35;;;2.50;;
14770;SDS011;7477;45.222;5.688;2022-11-20T06:10:34;4.80;;;2.88;;
14770;SDS011;7477;45.222;5.688;2022-11-20T06:13:53;3.80;;;2.60;;
14770;SDS011;7477;45.222;5.688;2022-11-20T06:17:13;3.72;;;2.60;;
14770;SDS011;7477;45.222;5.688;2022-11-20T06:20:32;3.78;;;2.45;;
14770;SDS011;7477;45.222;5.688;2022-11-20T06:23:52;4.20;;;2.30;;
14770;SDS011;7477;45.222;5.688;2022-11-20T06:27:12;4.10;;;2.15;;
14770;SDS011;7477;45.222;5.688;2022-11-20T06:30:31;7.28;;;3.55;;
14770;SDS011;7477;45.222;5.688;2022-11-20T06:33:50;4.65;;;2.58;;
14770;SDS011;7477;45.222;5.688;2022-11-20T06:37:10;2.75;;;2.25;;
14770;SDS011;7477;45.222;5.688;2022-11-20T06:40:29;3.92;;;2.67;;
14770;SDS011;7477;45.222;5.688;2022-11-20T06:43:48;2.38;;;2.10;;
14770;SDS011;7477;45.222;5.688;2022-11-20T06:47:08;4.07;;;2.50;;
14770;SDS011;7477;45.222;5.688;2022-11-20T06:50:27;3.45;;;2.10;;
14770;SDS011;7477;45.222;5.688;2022-11-20T06:53:46;6.00;;;4.32;;
14770;SDS011;7477;45.222;5.688;2022-11-20T06:57:05;6.07;;;2.60;;
14770;SDS011;7477;45.222;5.688;2022-11-20T07:00:24;4.85;;;3.60;;
14770;SDS011;7477;45.222;5.688;2022-11-20T07:03:44;2.25;;;1.92;;
14770;SDS011;7477;45.222;5.688;2022-11-20T07:07:03;7.45;;;4.00;;
14770;SDS011;7477;45.222;5.688;2022-11-20T07:10:23;3.08;;;1.92;;
14770;SDS011;7477;45.222;5.688;2022-11-20T07:13:42;3.35;;;2.45;;
14770;SDS011;7477;45.222;5.688;2022-11-20T07:17:01;5.18;;;2.70;;
14770;SDS011;7477;45.222;5.688;2022-11-20T07:20:20;3.85;;;2.28;;
14770;SDS011;7477;45.222;5.688;2022-11-20T07:23:39;3.70;;;2.35;;
14770;SDS011;7477;45.222;5.688;2022-11-20T07:26:58;3.38;;;3.08;;
14770;SDS011;7477;45.222;5.688;2022-11-20T07:30:18;2.67;;;2.03;;
14770;SDS011;7477;45.222;5.688;2022-11-20T07:33:37;2.58;;;2.38;;
14770;SDS011;7477;45.222;5.688;2022-11-20T07:36:56;3.03;;;2.28;;
14770;SDS011;7477;45.222;5.688;2022-11-20T07:40:16;6.93;;;4.97;;
14770;SDS011;7477;45.222;5.688;2022-11-20T07:43:35;4.22;;;3.10;;
14770;SDS011;7477;45.222;5.688;2022-11-20T07:46:54;5.13;;;3.90;;
14770;SDS011;7477;45.222;5.688;2022-11-20T07:50:13;7.55;;;4.55;;
14770;SDS011;7477;45.222;5.688;2022-11-20T07:53:33;4.45;;;3.30;;
14770;SDS011;7477;45.222;5.688;2022-11-20T07:56:52;9.47;;;4.47;;
14770;SDS011;7477;45.222;5.688;2022-11-20T08:00:12;5.25;;;3.22;;
14770;SDS011;7477;45.222;5.688;2022-11-20T08:03:32;2.80;;;2.43;;
14770;SDS011;7477;45.222;5.688;2022-11-20T08:06:52;5.53;;;2.50;;
14770;SDS011;7477;45.222;5.688;2022-11-20T08:10:12;2.67;;;2.45;;
14770;SDS011;7477;45.222;5.688;2022-11-20T08:13:33;11.90;;;4.57;;
14770;SDS011;7477;45.222;5.688;2022-11-20T08:17:11;10.93;;;3.88;;
14770;SDS011;7477;45.222;5.688;2022-11-20T08:20:31;3.67;;;2.75;;
14770;SDS011;7477;45.222;5.688;2022-11-20T08:23:50;3.72;;;2.70;;
14770;SDS011;7477;45.222;5.688;2022-11-20T08:27:10;5.80;;;2.78;;
14770;SDS011;7477;45.222;5.688;2022-11-20T08:30:29;3.67;;;2.85;;
14770;SDS011;7477;45.222;5.688;2022-11-20T08:33:49;3.15;;;2.55;;
14770;SDS011;7477;45.222;5.688;2022-11-20T08:37:08;3.88;;;3.28;;
14770;SDS011;7477;45.222;5.688;2022-11-20T08:40:27;5.00;;;3.42;;
14770;SDS011;7477;45.222;5.688;2022-11-20T08:43:47;4.63;;;3.28;;
14770;SDS011;7477;45.222;5.688;2022-11-20T08:47:07;5.63;;;3.30;;
14770;SDS011;7477;45.222;5.688;2022-11-20T08:50:26;3.53;;;2.55;;
14770;SDS011;7477;45.222;5.688;2022-11-20T08:53:45;4.40;;;2.60;;
14770;SDS011;7477;45.222;5.688;2022-11-20T08:57:07;2.45;;;2.25;;
14770;SDS011;7477;45.222;5.688;2022-11-20T09:00:26;3.67;;;2.40;;
14770;SDS011;7477;45.222;5.688;2022-11-20T09:03:45;4.15;;;3.33;;
14770;SDS011;7477;45.222;5.688;2022-11-20T09:07:05;3.28;;;2.97;;
14770;SDS011;7477;45.222;5.688;2022-11-20T09:10:24;3.50;;;2.78;;
14770;SDS011;7477;45.222;5.688;2022-11-20T09:13:45;4.40;;;2.95;;
14770;SDS011;7477;45.222;5.688;2022-11-20T09:17:04;4.13;;;2.80;;
14770;SDS011;7477;45.222;5.688;2022-11-20T09:20:23;3.33;;;2.80;;
14770;SDS011;7477;45.222;5.688;2022-11-20T09:23:43;5.88;;;3.42;;
14770;SDS011;7477;45.222;5.688;2022-11-20T09:27:04;5.57;;;3.58;;
14770;SDS011;7477;45.222;5.688;2022-11-20T09:30:24;3.47;;;2.97;;
14770;SDS011;7477;45.222;5.688;2022-11-20T09:33:44;2.70;;;2.50;;
14770;SDS011;7477;45.222;5.688;2022-11-20T09:37:03;3.47;;;3.17;;
14770;SDS011;7477;45.222;5.688;2022-11-20T09:40:27;3.45;;;2.50;;
14770;SDS011;7477;45.222;5.688;2022-11-20T09:43:58;3.60;;;2.97;;
14770;SDS011;7477;45.222;5.688;2022-11-20T09:47:25;3.55;;;3.25;;
14770;SDS011;7477;45.222;5.688;2022-11-20T09:51:08;4.68;;;2.72;;
14770;SDS011;7477;45.222;5.688;2022-11-20T09:54:31;2.85;;;2.53;;
14770;SDS011;7477;45.222;5.688;2022-11-20T09:57:56;4.20;;;2.70;;
14770;SDS011;7477;45.222;5.688;2022-11-20T10:01:19;4.03;;;2.80;;
14770;SDS011;7477;45.222;5.688;2022-11-20T10:04:49;6.88;;;2.80;;
14770;SDS011;7477;45.222;5.688;2022-11-20T10:15:11;3.55;;;2.40;;
14770;SDS011;7477;45.222;5.688;2022-11-20T10:29:46;3.42;;;2.35;;
14770;SDS011;7477;45.222;5.688;2022-11-20T10:33:19;7.93;;;3.42;;
14770;SDS011;7477;45.222;5.688;2022-11-20T10:37:25;3.47;;;2.35;;
14770;SDS011;7477;45.222;5.688;2022-11-20T10:44:05;5.38;;;2.55;;
14770;SDS011;7477;45.222;5.688;2022-11-20T10:51:37;3.42;;;2.20;;
14770;SDS011;7477;45.222;5.688;2022-11-20T10:55:07;4.57;;;2.42;;
14770;SDS011;7477;45.222;5.688;2022-11-20T11:02:24;2.90;;;2.20;;
14770;SDS011;7477;45.222;5.688;2022-11-20T11:09:17;4.10;;;2.90;;
14770;SDS011;7477;45.222;5.688;2022-11-20T11:12:43;3.20;;;2.78;;
14770;SDS011;7477;45.222;5.688;2022-11-20T11:16:05;2.53;;;2.33;;
14770;SDS011;7477;45.222;5.688;2022-11-20T11:19:40;2.60;;;2.40;;
14770;SDS011;7477;45.222;5.688;2022-11-20T11:22:59;3.58;;;3.15;;
14770;SDS011;7477;45.222;5.688;2022-11-20T11:26:20;2.10;;;1.80;;
14770;SDS011;7477;45.222;5.688;2022-11-20T11:29:41;4.65;;;2.25;;
14770;SDS011;7477;45.222;5.688;2022-11-20T11:33:09;4.05;;;2.28;;
14770;SDS011;7477;45.222;5.688;2022-11-20T11:36:30;2.42;;;2.00;;
14770;SDS011;7477;45.222;5.688;2022-11-20T11:39:52;2.92;;;2.00;;
14770;SDS011;7477;45.222;5.688;2022-11-20T11:43:25;3.78;;;2.13;;
14770;SDS011;7477;45.222;5.688;2022-11-20T11:47:08;1.85;;;1.65;;
14770;SDS011;7477;45.222;5.688;2022-11-20T11:50:36;4.63;;;2.00;;
14770;SDS011;7477;45.222;5.688;2022-11-20T11:54:17;2.40;;;1.70;;
14770;SDS011;7477;45.222;5.688;2022-11-20T12:01:29;2.85;;;1.80;;
14770;SDS011;7477;45.222;5.688;2022-11-20T12:04:54;2.08;;;1.63;;
14770;SDS011;7477;45.222;5.688;2022-11-20T12:08:27;3.45;;;1.77;;
14770;SDS011;7477;45.222;5.688;2022-11-20T12:12:13;1.88;;;1.70;;
14770;SDS011;7477;45.222;5.688;2022-11-20T12:15:44;2.28;;;1.80;;
14770;SDS011;7477;45.222;5.688;2022-11-20T12:19:12;2.83;;;1.70;;
14770;SDS011;7477;45.222;5.688;2022-11-20T12:26:43;2.38;;;1.63;;
14770;SDS011;7477;45.222;5.688;2022-11-20T12:30:16;2.65;;;1.67;;
14770;SDS011;7477;45.222;5.688;2022-11-20T12:33:48;2.33;;;1.73;;
14770;SDS011;7477;45.222;5.688;2022-11-20T12:45:31;1.35;;;1.25;;
14770;SDS011;7477;45.222;5.688;2022-11-20T12:52:38;1.42;;;1.33;;
14770;SDS011;7477;45.222;5.688;2022-11-20T13:03:39;2.22;;;1.67;;
14770;SDS011;7477;45.222;5.688;2022-11-20T13:07:12;1.98;;;1.77;;
14770;SDS011;7477;45.222;5.688;2022-11-20T13:14:11;3.38;;;1.27;;
14770;SDS011;7477;45.222;5.688;2022-11-20T13:17:55;1.60;;;1.42;;
14770;SDS011;7477;45.222;5.688;2022-11-20T13:21:35;1.48;;;1.33;;
14770;SDS011;7477;45.222;5.688;2022-11-20T13:24:56;1.77;;;1.67;;
14770;SDS011;7477;45.222;5.688;2022-11-20T13:31:36;1.67;;;1.30;;
14770;SDS011;7477;45.222;5.688;2022-11-20T13:35:03;4.20;;;1.50;;
14770;SDS011;7477;45.222;5.688;2022-11-20T13:38:23;4.50;;;2.00;;
14770;SDS011;7477;45.222;5.688;2022-11-20T13:41:42;2.05;;;1.67;;
14770;SDS011;7477;45.222;5.688;2022-11-20T13:45:21;1.42;;;1.15;;
14770;SDS011;7477;45.222;5.688;2022-11-20T13:48:43;1.75;;;1.60;;
14770;SDS011;7477;45.222;5.688;2022-11-20T13:52:08;2.25;;;1.60;;
14770;SDS011;7477;45.222;5.688;2022-11-20T13:55:46;2.72;;;2.00;;
14770;SDS011;7477;45.222;5.688;2022-11-20T14:02:42;1.83;;;1.40;;
14770;SDS011;7477;45.222;5.688;2022-11-20T14:06:05;2.83;;;1.30;;
14770;SDS011;7477;45.222;5.688;2022-11-20T14:09:55;1.63;;;1.50;;
14770;SDS011;7477;45.222;5.688;2022-11-20T14:13:19;5.55;;;2.60;;
14770;SDS011;7477;45.222;5.688;2022-11-20T14:16:39;1.60;;;1.50;;
14770;SDS011;7477;45.222;5.688;2022-11-20T14:19:59;2.08;;;1.50;;
14770;SDS011;7477;45.222;5.688;2022-11-20T14:23:26;4.72;;;2.72;;
14770;SDS011;7477;45.222;5.688;2022-11-20T14:26:46;2.53;;;1.65;;
14770;SDS011;7477;45.222;5.688;2022-11-20T14:33:34;3.50;;;2.72;;
14770;SDS011;7477;45.222;5.688;2022-11-20T14:36:59;4.85;;;1.88;;
14770;SDS011;7477;45.222;5.688;2022-11-20T14:40:34;1.98;;;1.40;;
14770;SDS011;7477;45.222;5.688;2022-11-20T14:43:56;1.35;;;1.25;;
14770;SDS011;7477;45.222;5.688;2022-11-20T14:47:26;2.15;;;1.60;;
14770;SDS011;7477;45.222;5.688;2022-11-20T14:50:48;2.08;;;1.55;;
14770;SDS011;7477;45.222;5.688;2022-11-20T14:54:17;1.90;;;1.65;;
14770;SDS011;7477;45.222;5.688;2022-11-20T14:57:38;1.70;;;1.52;;
14770;SDS011;7477;45.222;5.688;2022-11-20T15:00:59;2.28;;;1.50;;
14770;SDS011;7477;45.222;5.688;2022-11-20T15:04:23;1.95;;;1.75;;
14770;SDS011;7477;45.222;5.688;2022-11-20T15:07:47;2.97;;;2.08;;
14770;SDS011;7477;45.222;5.688;2022-11-20T15:11:16;1.88;;;1.75;;
14770;SDS011;7477;45.222;5.688;2022-11-20T15:14:38;2.78;;;2.08;;
14770;SDS011;7477;45.222;5.688;2022-11-20T15:17:57;3.10;;;2.00;;
14770;SDS011;7477;45.222;5.688;2022-11-20T15:21:17;4.82;;;2.85;;
14770;SDS011;7477;45.222;5.688;2022-11-20T15:24:39;6.00;;;5.38;;
14770;SDS011;7477;45.222;5.688;2022-11-20T15:27:58;4.55;;;2.72;;
14770;SDS011;7477;45.222;5.688;2022-11-20T15:31:18;9.63;;;5.20;;
14770;SDS011;7477;45.222;5.688;2022-11-20T15:34:39;8.95;;;6.90;;
14770;SDS011;7477;45.222;5.688;2022-11-20T15:37:59;6.55;;;4.65;;
14770;SDS011;7477;45.222;5.688;2022-11-20T15:41:18;4.43;;;3.00;;
14770;SDS011;7477;45.222;5.688;2022-11-20T15:44:38;3.58;;;2.50;;
14770;SDS011;7477;45.222;5.688;2022-11-20T15:47:57;5.03;;;2.97;;
14770;SDS011;7477;45.222;5.688;2022-11-20T15:54:42;5.18;;;2.88;;
14770;SDS011;7477;45.222;5.688;2022-11-20T15:58:01;5.18;;;3.60;;
14770;SDS011;7477;45.222;5.688;2022-11-20T16:01:20;5.25;;;3.70;;
14770;SDS011;7477;45.222;5.688;2022-11-20T16:04:41;12.38;;;8.45;;
14770;SDS011;7477;45.222;5.688;2022-11-20T16:08:00;14.20;;;8.15;;
14770;SDS011;7477;45.222;5.688;2022-11-20T16:11:20;3.38;;;2.60;;
14770;SDS011;7477;45.222;5.688;2022-11-20T16:14:39;3.10;;;2.25;;
14770;SDS011;7477;45.222;5.688;2022-11-20T16:18:18;6.82;;;4.60;;
14770;SDS011;7477;45.222;5.688;2022-11-20T16:21:39;7.10;;;4.80;;
14770;SDS011;7477;45.222;5.688;2022-11-20T16:24:59;4.72;;;3.83;;
14770;SDS011;7477;45.222;5.688;2022-11-20T16:28:19;9.27;;;4.10;;
14770;SDS011;7477;45.222;5.688;2022-11-20T16:31:38;12.93;;;6.10;;
14770;SDS011;7477;45.222;5.688;2022-11-20T16:34:58;17.90;;;8.15;;
14770;SDS011;7477;45.222;5.688;2022-11-20T16:38:17;15.82;;;8.43;;
14770;SDS011;7477;45.222;5.688;2022-11-20T16:41:37;10.68;;;6.88;;
14770;SDS011;7477;45.222;5.688;2022-11-20T16:44:56;9.70;;;4.72;;
14770;SDS011;7477;45.222;5.688;2022-11-20T16:48:15;9.73;;;4.63;;
14770;SDS011;7477;45.222;5.688;2022-11-20T16:51:35;5.80;;;4.80;;
14770;SDS011;7477;45.222;5.688;2022-11-20T16:54:55;9.65;;;6.03;;
14770;SDS011;7477;45.222;5.688;2022-11-20T16:58:14;9.05;;;5.18;;
14770;SDS011;7477;45.222;5.688;2022-11-20T17:01:34;8.32;;;4.78;;
14770;SDS011;7477;45.222;5.688;2022-11-20T17:04:56;7.38;;;4.32;;
14770;SDS011;7477;45.222;5.688;2022-11-20T17:08:15;12.65;;;7.45;;
14770;SDS011;7477;45.222;5.688;2022-11-20T17:11:34;8.10;;;4.78;;
14770;SDS011;7477;45.222;5.688;2022-11-20T17:14:54;7.15;;;4.20;;
14770;SDS011;7477;45.222;5.688;2022-11-20T17:18:14;5.60;;;4.43;;
14770;SDS011;7477;45.222;5.688;2022-11-20T17:21:33;5.35;;;4.03;;
14770;SDS011;7477;45.222;5.688;2022-11-20T17:24:57;5.95;;;4.10;;
14770;SDS011;7477;45.222;5.688;2022-11-20T17:28:16;5.05;;;3.95;;
14770;SDS011;7477;45.222;5.688;2022-11-20T17:31:35;5.50;;;3.97;;
14770;SDS011;7477;45.222;5.688;2022-11-20T17:34:56;6.78;;;4.55;;
14770;SDS011;7477;45.222;5.688;2022-11-20T17:38:16;9.35;;;6.15;;
14770;SDS011;7477;45.222;5.688;2022-11-20T17:41:35;9.50;;;6.10;;
14770;SDS011;7477;45.222;5.688;2022-11-20T17:44:55;7.50;;;5.55;;
14770;SDS011;7477;45.222;5.688;2022-11-20T17:48:16;7.78;;;5.68;;
14770;SDS011;7477;45.222;5.688;2022-11-20T17:51:35;12.43;;;7.80;;
14770;SDS011;7477;45.222;5.688;2022-11-20T17:54:55;9.65;;;5.82;;
14770;SDS011;7477;45.222;5.688;2022-11-20T17:58:15;7.45;;;5.78;;
14770;SDS011;7477;45.222;5.688;2022-11-20T18:01:34;8.95;;;5.57;;
14770;SDS011;7477;45.222;5.688;2022-11-20T18:04:54;12.18;;;7.10;;
14770;SDS011;7477;45.222;5.688;2022-11-20T18:08:13;5.50;;;3.38;;
14770;SDS011;7477;45.222;5.688;2022-11-20T18:11:33;3.55;;;2.00;;
14770;SDS011;7477;45.222;5.688;2022-11-20T18:14:54;4.90;;;2.70;;
14770;SDS011;7477;45.222;5.688;2022-11-20T18:18:14;2.05;;;1.08;;
14770;SDS011;7477;45.222;5.688;2022-11-20T18:21:33;1.52;;;1.20;;
14770;SDS011;7477;45.222;5.688;2022-11-20T18:24:53;1.40;;;1.30;;
14770;SDS011;7477;45.222;5.688;2022-11-20T18:28:12;2.15;;;1.48;;
14770;SDS011;7477;45.222;5.688;2022-11-20T18:31:31;2.63;;;1.35;;
14770;SDS011;7477;45.222;5.688;2022-11-20T18:34:51;8.93;;;4.05;;
14770;SDS011;7477;45.222;5.688;2022-11-20T18:38:10;4.72;;;2.50;;
14770;SDS011;7477;45.222;5.688;2022-11-20T18:41:29;3.63;;;1.90;;
14770;SDS011;7477;45.222;5.688;2022-11-20T18:45:08;1.83;;;1.40;;
14770;SDS011;7477;45.222;5.688;2022-11-20T18:48:29;1.70;;;1.33;;
14770;SDS011;7477;45.222;5.688;2022-11-20T18:51:49;0.98;;;0.90;;
14770;SDS011;7477;45.222;5.688;2022-11-20T18:55:09;1.15;;;1.05;;
14770;SDS011;7477;45.222;5.688;2022-11-20T18:58:28;2.38;;;1.05;;
14770;SDS011;7477;45.222;5.688;2022-11-20T19:01:48;2.60;;;1.55;;
14770;SDS011;7477;45.222;5.688;2022-11-20T19:05:08;2.75;;;1.40;;
14770;SDS011;7477;45.222;5.688;2022-11-20T19:08:33;1.35;;;1.25;;
14770;SDS011;7477;45.222;5.688;2022-11-20T19:11:52;4.05;;;2.03;;
14770;SDS011;7477;45.222;5.688;2022-11-20T19:15:11;1.85;;;1.35;;
14770;SDS011;7477;45.222;5.688;2022-11-20T19:18:30;2.50;;;1.45;;
14770;SDS011;7477;45.222;5.688;2022-11-20T19:21:50;2.20;;;1.70;;
14770;SDS011;7477;45.222;5.688;2022-11-20T19:25:10;3.33;;;1.83;;
14770;SDS011;7477;45.222;5.688;2022-11-20T19:28:32;4.95;;;2.95;;
14770;SDS011;7477;45.222;5.688;2022-11-20T19:31:52;2.40;;;1.77;;
14770;SDS011;7477;45.222;5.688;2022-11-20T19:35:12;5.95;;;2.80;;
14770;SDS011;7477;45.222;5.688;2022-11-20T19:38:31;8.05;;;4.70;;
14770;SDS011;7477;45.222;5.688;2022-11-20T19:41:50;4.22;;;2.83;;
14770;SDS011;7477;45.222;5.688;2022-11-20T19:45:09;12.05;;;6.05;;
14770;SDS011;7477;45.222;5.688;2022-11-20T19:48:29;3.97;;;3.03;;
14770;SDS011;7477;45.222;5.688;2022-11-20T19:51:52;3.53;;;2.50;;
14770;SDS011;7477;45.222;5.688;2022-11-20T19:55:12;4.53;;;2.72;;
14770;SDS011;7477;45.222;5.688;2022-11-20T19:58:31;4.07;;;2.88;;
14770;SDS011;7477;45.222;5.688;2022-11-20T20:01:50;12.52;;;5.90;;
14770;SDS011;7477;45.222;5.688;2022-11-20T20:05:10;8.82;;;5.25;;
14770;SDS011;7477;45.222;5.688;2022-11-20T20:08:30;15.40;;;8.95;;
14770;SDS011;7477;45.222;5.688;2022-11-20T20:11:49;9.95;;;5.55;;
14770;SDS011;7477;45.222;5.688;2022-11-20T20:15:09;7.20;;;4.82;;
14770;SDS011;7477;45.222;5.688;2022-11-20T20:18:28;7.72;;;5.40;;
14770;SDS011;7477;45.222;5.688;2022-11-20T20:21:48;8.63;;;4.60;;
14770;SDS011;7477;45.222;5.688;2022-11-20T20:25:08;5.05;;;3.55;;
14770;SDS011;7477;45.222;5.688;2022-11-20T20:28:27;5.50;;;3.58;;
14770;SDS011;7477;45.222;5.688;2022-11-20T20:31:47;7.10;;;3.95;;
14770;SDS011;7477;45.222;5.688;2022-11-20T20:35:06;6.32;;;4.00;;
14770;SDS011;7477;45.222;5.688;2022-11-20T20:38:25;6.85;;;4.50;;
14770;SDS011;7477;45.222;5.688;2022-11-20T20:41:44;5.97;;;3.60;;
14770;SDS011;7477;45.222;5.688;2022-11-20T20:45:04;4.28;;;3.47;;
14770;SDS011;7477;45.222;5.688;2022-11-20T20:48:28;5.90;;;3.80;;
14770;SDS011;7477;45.222;5.688;2022-11-20T20:51:47;4.97;;;3.67;;
14770;SDS011;7477;45.222;5.688;2022-11-20T20:55:07;3.83;;;3.17;;
14770;SDS011;7477;45.222;5.688;2022-11-20T20:58:27;5.43;;;2.72;;
14770;SDS011;7477;45.222;5.688;2022-11-20T21:01:47;3.30;;;2.38;;
14770;SDS011;7477;45.222;5.688;2022-11-20T21:05:07;4.28;;;2.00;;
14770;SDS011;7477;45.222;5.688;2022-11-20T21:08:26;11.77;;;6.35;;
14770;SDS011;7477;45.222;5.688;2022-11-20T21:11:46;7.22;;;4.75;;
14770;SDS011;7477;45.222;5.688;2022-11-20T21:15:05;4.15;;;2.97;;
14770;SDS011;7477;45.222;5.688;2022-11-20T21:18:25;4.05;;;2.97;;
14770;SDS011;7477;45.222;5.688;2022-11-20T21:21:46;4.30;;;3.30;;
14770;SDS011;7477;45.222;5.688;2022-11-20T21:25:17;5.30;;;3.20;;
14770;SDS011;7477;45.222;5.688;2022-11-20T21:28:36;6.13;;;2.90;;
14770;SDS011;7477;45.222;5.688;2022-11-20T21:31:56;3.00;;;2.70;;
14770;SDS011;7477;45.222;5.688;2022-11-20T21:35:16;4.07;;;2.80;;
14770;SDS011;7477;45.222;5.688;2022-11-20T21:38:36;3.88;;;2.53;;
14770;SDS011;7477;45.222;5.688;2022-11-20T21:41:55;3.45;;;2.63;;
14770;SDS011;7477;45.222;5.688;2022-11-20T21:45:15;3.70;;;2.40;;
14770;SDS011;7477;45.222;5.688;2022-11-20T21:48:35;3.08;;;2.78;;
14770;SDS011;7477;45.222;5.688;2022-11-20T21:51:57;3.50;;;3.03;;